createdAt,value
2023-02-12T00:00:33.565Z,6.3
2023-02-12T00:01:34.119Z,6.2
2023-02-12T00:02:33.790Z,6.2
2023-02-12T00:03:34.036Z,6.2
2023-02-12T00:04:34.195Z,6.2
2023-02-12T00:05:33.736Z,6.2
2023-02-12T00:06:33.283Z,6.2
2023-02-12T00:07:33.713Z,6.2
2023-02-12T00:08:34.011Z,6.2
2023-02-12T00:09:34.321Z,6.2
2023-02-12T00:10:33.711Z,6.2
2023-02-12T00:11:33.316Z,6.2
2023-02-12T00:12:33.353Z,6.2
2023-02-12T00:13:33.642Z,6.2
2023-02-12T00:14:33.443Z,6.2
2023-02-12T00:15:33.997Z,6.2
2023-02-12T00:16:34.214Z,6.3
2023-02-12T00:17:34.678Z,6.3
2023-02-12T00:18:33.430Z,6.3
2023-02-12T00:19:33.836Z,6.3
2023-02-12T00:20:34.102Z,6.3
2023-02-12T00:21:33.535Z,6.3
2023-02-12T00:22:34.168Z,6.3
2023-02-12T00:23:33.500Z,6.3
2023-02-12T00:24:34.271Z,6.3
2023-02-12T00:25:33.367Z,6.3
2023-02-12T00:26:33.364Z,6.3
2023-02-12T00:27:33.588Z,6.5
2023-02-12T00:28:33.974Z,6.5
2023-02-12T00:29:34.206Z,6.6
2023-02-12T00:30:33.623Z,6.6
2023-02-12T00:31:34.240Z,6.4
2023-02-12T00:32:33.741Z,6.3
2023-02-12T00:33:33.714Z,6.3
2023-02-12T00:34:33.813Z,6.3
2023-02-12T00:35:33.819Z,6.3
2023-02-12T00:36:33.943Z,6.3
2023-02-12T00:37:33.739Z,6.3
2023-02-12T00:38:33.356Z,6.3
2023-02-12T00:39:33.855Z,6.3
2023-02-12T00:40:33.956Z,6.3
2023-02-12T00:41:33.877Z,6.3
2023-02-12T00:42:34.006Z,6.3
2023-02-12T00:43:34.634Z,6.3
2023-02-12T00:44:33.988Z,6.3
2023-02-12T00:45:33.705Z,6.3
2023-02-12T00:46:33.813Z,6.3
2023-02-12T00:47:33.806Z,6.3
2023-02-12T00:48:34.110Z,6.4
2023-02-12T00:49:33.220Z,6.4
2023-02-12T00:50:33.479Z,6.4
2023-02-12T00:51:33.333Z,6.5
2023-02-12T00:52:33.333Z,6.5
2023-02-12T00:53:34.566Z,6.5
2023-02-12T00:54:33.632Z,6.5
2023-02-12T00:55:34.373Z,6.5
2023-02-12T00:56:33.878Z,6.6
2023-02-12T00:57:33.883Z,6.6
2023-02-12T00:58:33.346Z,6.5
2023-02-12T00:59:33.776Z,6.5
2023-02-12T01:00:34.000Z,6.4
2023-02-12T01:01:33.841Z,6.4
2023-02-12T01:02:33.488Z,6.4
2023-02-12T01:03:33.578Z,6.4
2023-02-12T01:04:33.858Z,6.3
2023-02-12T01:05:33.636Z,6.3
2023-02-12T01:06:32.100Z,6.3
2023-02-12T01:07:33.422Z,6.3
2023-02-12T01:08:33.542Z,6.4
2023-02-12T01:09:33.635Z,6.4
2023-02-12T01:10:34.707Z,6.6
2023-02-12T01:11:33.770Z,6.5
2023-02-12T01:12:33.686Z,6.6
2023-02-12T01:13:34.080Z,6.6
2023-02-12T01:14:33.565Z,6.5
2023-02-12T01:15:33.670Z,6.4
2023-02-12T01:16:33.883Z,6.4
2023-02-12T01:17:34.600Z,6.4
2023-02-12T01:18:33.803Z,6.4
2023-02-12T01:19:34.143Z,6.4
2023-02-12T01:20:33.719Z,6.4
2023-02-12T01:21:33.531Z,6.3
2023-02-12T01:22:33.311Z,6.3
2023-02-12T01:23:33.540Z,6.3
2023-02-12T01:24:34.462Z,6.3
2023-02-12T01:25:34.661Z,6.3
2023-02-12T01:26:33.974Z,6.3
2023-02-12T01:27:33.354Z,6.3
2023-02-12T01:28:32.898Z,6.3
2023-02-12T01:29:34.475Z,6.3
2023-02-12T01:30:33.777Z,6.3
2023-02-12T01:31:34.379Z,6.3
2023-02-12T01:32:33.992Z,6.4
2023-02-12T01:33:33.516Z,6.5
2023-02-12T01:34:34.080Z,6.5
2023-02-12T01:35:34.059Z,6.4
2023-02-12T01:36:33.374Z,6.4
2023-02-12T01:37:34.042Z,6.5
2023-02-12T01:38:34.249Z,6.5
2023-02-12T01:39:33.534Z,6.4
2023-02-12T01:40:34.766Z,6.4
2023-02-12T01:41:33.962Z,6.3
2023-02-12T01:42:33.852Z,6.4
2023-02-12T01:43:33.782Z,6.3
2023-02-12T01:44:34.098Z,6.3
2023-02-12T01:45:34.400Z,6.3
2023-02-12T01:46:33.978Z,6.3
2023-02-12T01:47:33.579Z,6.3
2023-02-12T01:48:33.582Z,6.3
2023-02-12T01:49:33.607Z,6.3
2023-02-12T01:50:32.684Z,6.3
2023-02-12T01:51:33.610Z,6.3
2023-02-12T01:52:33.816Z,6.4
2023-02-12T01:53:33.965Z,6.3
2023-02-12T01:54:33.517Z,6.3
2023-02-12T01:55:33.418Z,6.3
2023-02-12T01:56:34.230Z,6.3
2023-02-12T01:57:33.346Z,6.3
2023-02-12T01:58:33.246Z,6.3
2023-02-12T01:59:33.641Z,6.3
2023-02-12T02:00:34.161Z,6.3
2023-02-12T02:01:33.630Z,6.3
2023-02-12T02:02:33.674Z,6.3
2023-02-12T02:03:34.007Z,6.3
2023-02-12T02:04:36.259Z,6.4
2023-02-12T02:05:34.010Z,6.5
2023-02-12T02:06:33.618Z,6.5
2023-02-12T02:07:33.664Z,6.5
2023-02-12T02:08:33.749Z,6.5
2023-02-12T02:09:33.922Z,6.5
2023-02-12T02:10:33.628Z,6.5
2023-02-12T02:11:33.938Z,6.5
2023-02-12T02:12:33.941Z,6.5
2023-02-12T02:14:34.773Z,6.5
2023-02-12T02:15:33.861Z,6.5
2023-02-12T02:16:33.360Z,6.5
2023-02-12T02:17:34.078Z,6.5
2023-02-12T02:18:33.273Z,6.5
2023-02-12T02:19:33.687Z,6.4
2023-02-12T02:20:33.256Z,6.4
2023-02-12T02:21:34.301Z,6.4
2023-02-12T02:22:33.376Z,6.4
2023-02-12T02:23:33.590Z,6.4
2023-02-12T02:24:34.264Z,6.4
2023-02-12T02:25:34.041Z,6.4
2023-02-12T02:26:33.952Z,6.3
2023-02-12T02:27:34.141Z,6.3
2023-02-12T02:28:34.146Z,6.3
2023-02-12T02:29:33.839Z,6.3
2023-02-12T02:30:33.845Z,6.3
2023-02-12T02:31:34.059Z,6.4
2023-02-12T02:32:33.482Z,6.4
2023-02-12T02:33:33.805Z,6.4
2023-02-12T02:34:33.224Z,6.4
2023-02-12T02:35:32.546Z,6.5
2023-02-12T02:36:33.785Z,6.5
2023-02-12T02:37:33.547Z,6.4
2023-02-12T02:38:33.341Z,6.4
2023-02-12T02:39:34.463Z,6.3
2023-02-12T02:40:33.671Z,6.3
2023-02-12T02:41:33.323Z,6.3
2023-02-12T02:42:33.927Z,6.2
2023-02-12T02:43:34.447Z,6.2
2023-02-12T02:44:34.148Z,6.2
2023-02-12T02:45:33.894Z,6.2
2023-02-12T02:46:33.358Z,6.2
2023-02-12T02:47:34.392Z,6.2
2023-02-12T02:48:33.345Z,6.2
2023-02-12T02:49:35.396Z,6.2
2023-02-12T02:50:34.616Z,6.1
2023-02-12T02:51:33.490Z,6.1
2023-02-12T02:52:34.096Z,6.1
2023-02-12T02:53:34.303Z,6.1
2023-02-12T02:54:33.796Z,6.2
2023-02-12T02:55:33.292Z,6.2
2023-02-12T02:56:34.736Z,6.2
2023-02-12T02:57:32.875Z,6.2
2023-02-12T02:58:33.325Z,6.3
2023-02-12T02:59:33.948Z,6.3
2023-02-12T03:00:34.584Z,6.3
2023-02-12T03:01:33.945Z,6.3
2023-02-12T03:02:34.054Z,6.2
2023-02-12T03:03:34.175Z,6.2
2023-02-12T03:04:33.652Z,6.2
2023-02-12T03:05:34.577Z,6.2
2023-02-12T03:06:33.256Z,6.3
2023-02-12T03:07:34.127Z,6.3
2023-02-12T03:08:33.437Z,6.3
2023-02-12T03:09:34.491Z,6.2
2023-02-12T03:10:34.200Z,6.3
2023-02-12T03:11:34.041Z,6.3
2023-02-12T03:12:33.313Z,6.3
2023-02-12T03:13:34.658Z,6.3
2023-02-12T03:14:34.250Z,6.3
2023-02-12T03:15:34.691Z,6.4
2023-02-12T03:16:33.383Z,6.4
2023-02-12T03:17:34.066Z,6.4
2023-02-12T03:18:33.226Z,6.3
2023-02-12T03:19:33.254Z,6.3
2023-02-12T03:20:33.437Z,6.3
2023-02-12T03:21:34.088Z,6.3
2023-02-12T03:22:33.475Z,6.4
2023-02-12T03:23:33.884Z,6.4
2023-02-12T03:24:34.005Z,6.2
2023-02-12T03:25:33.283Z,6.2
2023-02-12T03:26:33.302Z,6.2
2023-02-12T03:27:34.003Z,6.2
2023-02-12T03:28:34.640Z,6.2
2023-02-12T03:29:34.861Z,6.3
2023-02-12T03:30:33.939Z,6.4
2023-02-12T03:31:33.608Z,6.3
2023-02-12T03:32:34.596Z,6.4
2023-02-12T03:33:33.330Z,6.4
2023-02-12T03:34:33.970Z,6.3
2023-02-12T03:35:34.249Z,6.3
2023-02-12T03:36:34.072Z,6.3
2023-02-12T03:37:33.963Z,6.3
2023-02-12T03:38:33.702Z,6.2
2023-02-12T03:39:33.756Z,6.2
2023-02-12T03:40:33.293Z,6.2
2023-02-12T03:41:34.004Z,6.2
2023-02-12T03:42:33.927Z,6.2
2023-02-12T03:43:32.854Z,6.2
2023-02-12T03:44:33.510Z,6.2
2023-02-12T03:45:34.235Z,6
2023-02-12T03:46:33.930Z,5.9
2023-02-12T03:47:33.860Z,5.9
2023-02-12T03:48:34.081Z,5.9
2023-02-12T03:49:33.230Z,5.9
2023-02-12T03:50:33.534Z,6
2023-02-12T03:51:34.484Z,6
2023-02-12T03:52:34.292Z,5.9
2023-02-12T03:53:33.498Z,5.9
2023-02-12T03:54:33.481Z,6
2023-02-12T03:55:33.501Z,5.9
2023-02-12T03:56:34.557Z,5.9
2023-02-12T03:57:33.817Z,6
2023-02-12T03:58:34.014Z,6
2023-02-12T03:59:34.223Z,6
2023-02-12T04:00:34.044Z,5.9
2023-02-12T04:01:33.864Z,6
2023-02-12T04:02:33.533Z,5.9
2023-02-12T04:03:33.325Z,5.9
2023-02-12T04:04:33.743Z,6
2023-02-12T04:05:33.890Z,6
2023-02-12T04:06:33.778Z,6
2023-02-12T04:07:33.909Z,5.9
2023-02-12T04:08:33.662Z,6
2023-02-12T04:09:33.952Z,6.1
2023-02-12T04:10:34.270Z,6.1
2023-02-12T04:11:33.458Z,6
2023-02-12T04:12:33.310Z,6
2023-02-12T04:13:33.219Z,6
2023-02-12T04:14:34.650Z,6
2023-02-12T04:15:33.395Z,6
2023-02-12T04:16:35.727Z,6
2023-02-12T04:17:33.817Z,5.9
2023-02-12T04:18:34.549Z,6
2023-02-12T04:19:34.709Z,6
2023-02-12T04:20:33.397Z,6
2023-02-12T04:21:33.870Z,6.1
2023-02-12T04:22:33.211Z,6.1
2023-02-12T04:23:34.472Z,6.1
2023-02-12T04:24:34.535Z,6.1
2023-02-12T04:25:33.515Z,6.1
2023-02-12T04:26:34.522Z,6
2023-02-12T04:28:33.441Z,6.1
2023-02-12T04:29:34.426Z,6.1
2023-02-12T04:30:33.821Z,6.1
2023-02-12T04:31:33.839Z,6.1
2023-02-12T04:32:34.034Z,6.1
2023-02-12T04:33:34.032Z,6.1
2023-02-12T04:34:34.650Z,6.2
2023-02-12T04:35:33.731Z,6.2
2023-02-12T04:36:35.277Z,6.2
2023-02-12T04:37:34.459Z,6.2
2023-02-12T04:38:34.057Z,6.2
2023-02-12T04:39:33.558Z,6.2
2023-02-12T04:40:33.895Z,6.2
2023-02-12T04:41:33.715Z,6.2
2023-02-12T04:42:34.709Z,6.2
2023-02-12T04:43:36.308Z,6.2
2023-02-12T04:44:33.763Z,6.1
2023-02-12T04:45:33.612Z,6.1
2023-02-12T04:46:34.243Z,6.1
2023-02-12T04:47:34.014Z,6.1
2023-02-12T04:48:33.884Z,6.1
2023-02-12T04:49:32.780Z,6.1
2023-02-12T04:50:36.164Z,6.2
2023-02-12T04:51:33.949Z,6.1
2023-02-12T04:52:34.042Z,6.1
2023-02-12T04:53:34.003Z,6.1
2023-02-12T04:54:33.363Z,6.1
2023-02-12T04:55:33.251Z,6.1
2023-02-12T04:56:33.597Z,6.1
2023-02-12T04:57:33.266Z,6.2
2023-02-12T04:58:33.983Z,6.2
2023-02-12T04:59:33.281Z,6.2
2023-02-12T05:00:33.888Z,6.3
2023-02-12T05:01:33.333Z,6.2
2023-02-12T05:02:34.630Z,6.2
2023-02-12T05:03:33.870Z,6.2
2023-02-12T05:04:33.218Z,6.2
2023-02-12T05:05:33.293Z,6.2
2023-02-12T05:06:33.725Z,6.2
2023-02-12T05:07:33.835Z,6.2
2023-02-12T05:08:33.857Z,6.2
2023-02-12T05:09:33.365Z,6.2
2023-02-12T05:10:34.795Z,6.2
2023-02-12T05:11:34.533Z,6.1
2023-02-12T05:12:34.284Z,6.2
2023-02-12T05:13:33.877Z,6.2
2023-02-12T05:14:33.266Z,6.2
2023-02-12T05:15:33.796Z,6.2
2023-02-12T05:16:34.406Z,6.2
2023-02-12T05:17:34.327Z,6.2
2023-02-12T05:18:34.012Z,6.2
2023-02-12T05:19:33.708Z,6.3
2023-02-12T05:20:34.024Z,6.3
2023-02-12T05:21:33.523Z,6.3
2023-02-12T05:22:34.136Z,6.3
2023-02-12T05:23:33.247Z,6.3
2023-02-12T05:24:34.247Z,6.3
2023-02-12T05:25:34.264Z,6.3
2023-02-12T05:26:34.483Z,6.3
2023-02-12T05:27:33.756Z,6.3
2023-02-12T05:28:34.181Z,6.3
2023-02-12T05:29:33.379Z,6.3
2023-02-12T05:30:34.190Z,6.3
2023-02-12T05:31:34.311Z,6.3
2023-02-12T05:32:33.149Z,6.4
2023-02-12T05:33:33.600Z,6.5
2023-02-12T05:35:34.019Z,6.5
2023-02-12T05:36:33.486Z,6.5
2023-02-12T05:37:33.270Z,6.4
2023-02-12T05:38:34.243Z,6.4
2023-02-12T05:39:33.284Z,6.3
2023-02-12T05:40:34.107Z,6.3
2023-02-12T05:41:34.284Z,6.3
2023-02-12T05:42:33.326Z,6.3
2023-02-12T05:43:33.856Z,6.3
2023-02-12T05:44:34.276Z,6.3
2023-02-12T05:45:33.784Z,6.3
2023-02-12T05:46:33.938Z,6.3
2023-02-12T05:47:33.688Z,6.3
2023-02-12T05:48:33.384Z,6.3
2023-02-12T05:49:34.215Z,6.3
2023-02-12T05:50:33.221Z,6.3
2023-02-12T05:51:34.130Z,6.3
2023-02-12T05:52:34.336Z,6.3
2023-02-12T05:53:34.246Z,6.3
2023-02-12T05:54:33.824Z,6.2
2023-02-12T05:55:33.895Z,6.2
2023-02-12T05:56:32.987Z,6.2
2023-02-12T05:57:34.732Z,6.2
2023-02-12T05:58:33.882Z,6.1
2023-02-12T05:59:33.312Z,6.1
2023-02-12T06:00:33.680Z,6.2
2023-02-12T06:01:33.265Z,6.2
2023-02-12T06:02:34.053Z,6.2
2023-02-12T06:03:33.629Z,6.2
2023-02-12T06:04:33.461Z,6.3
2023-02-12T06:05:33.424Z,6.3
2023-02-12T06:06:33.434Z,6.2
2023-02-12T06:07:33.374Z,6.2
2023-02-12T06:08:34.113Z,6.2
2023-02-12T06:09:34.442Z,6.2
2023-02-12T06:10:33.628Z,6.1
2023-02-12T06:11:33.731Z,6.1
2023-02-12T06:12:33.997Z,6.3
2023-02-12T06:13:34.005Z,6.4
2023-02-12T06:14:33.801Z,6.4
2023-02-12T06:15:33.790Z,6.4
2023-02-12T06:16:34.919Z,6.5
2023-02-12T06:17:33.720Z,6.5
2023-02-12T06:18:33.700Z,6.4
2023-02-12T06:19:34.056Z,6.4
2023-02-12T06:20:34.311Z,6.4
2023-02-12T06:21:33.476Z,6.3
2023-02-12T06:22:33.809Z,6.3
2023-02-12T06:23:33.720Z,6.3
2023-02-12T06:24:33.297Z,6.3
2023-02-12T06:25:33.954Z,6.3
2023-02-12T06:26:34.248Z,6.3
2023-02-12T06:27:33.726Z,6.3
2023-02-12T06:28:34.300Z,6.3
2023-02-12T06:29:34.253Z,6.3
2023-02-12T06:30:33.253Z,6.3
2023-02-12T06:31:33.842Z,6.3
2023-02-12T06:32:33.660Z,6.3
2023-02-12T06:33:33.960Z,6.3
2023-02-12T06:34:34.036Z,6.3
2023-02-12T06:35:33.747Z,6.4
2023-02-12T06:36:33.608Z,6.3
2023-02-12T06:37:33.838Z,6.3
2023-02-12T06:38:34.330Z,6.4
2023-02-12T06:39:33.745Z,6.4
2023-02-12T06:40:32.814Z,6.4
2023-02-12T06:41:32.035Z,6.4
2023-02-12T06:42:33.285Z,6.4
2023-02-12T06:43:33.248Z,6.3
2023-02-12T06:44:33.274Z,6.3
2023-02-12T06:45:33.476Z,6.3
2023-02-12T06:46:33.914Z,6.3
2023-02-12T06:47:33.865Z,6.3
2023-02-12T06:48:33.495Z,6.3
2023-02-12T06:49:33.891Z,6.3
2023-02-12T06:50:34.335Z,6.3
2023-02-12T06:51:33.701Z,6.3
2023-02-12T06:52:33.300Z,6.3
2023-02-12T06:53:34.010Z,6.2
2023-02-12T06:54:33.550Z,6.3
2023-02-12T06:55:34.039Z,6.3
2023-02-12T06:56:34.849Z,6.2
2023-02-12T06:57:34.034Z,6.3
2023-02-12T06:58:34.064Z,6.3
2023-02-12T06:59:34.078Z,6.3
2023-02-12T07:00:33.652Z,6.3
2023-02-12T07:01:33.655Z,6.4
2023-02-12T07:02:33.970Z,6.4
2023-02-12T07:03:32.500Z,6.4
2023-02-12T07:04:33.873Z,6.4
2023-02-12T07:05:33.230Z,6.3
2023-02-12T07:06:33.571Z,6.3
2023-02-12T07:07:33.647Z,6.3
2023-02-12T07:08:33.892Z,6.3
2023-02-12T07:09:33.604Z,6.3
2023-02-12T07:10:34.224Z,6.3
2023-02-12T07:11:36.882Z,6.3
2023-02-12T07:12:33.586Z,6.3
2023-02-12T07:13:34.042Z,6.3
2023-02-12T07:14:33.848Z,6.3
2023-02-12T07:15:33.257Z,6.4
2023-02-12T07:16:34.275Z,6.3
2023-02-12T07:17:33.863Z,6.4
2023-02-12T07:18:33.973Z,6.4
2023-02-12T07:19:33.646Z,6.4
2023-02-12T07:20:33.224Z,6.4
2023-02-12T07:21:34.458Z,6.4
2023-02-12T07:22:33.627Z,6.4
2023-02-12T07:23:33.843Z,6.4
2023-02-12T07:24:34.245Z,6.4
2023-02-12T07:25:32.369Z,6.4
2023-02-12T07:26:33.367Z,6.5
2023-02-12T07:27:33.315Z,6.5
2023-02-12T07:28:33.976Z,6.5
2023-02-12T07:29:33.336Z,6.5
2023-02-12T07:30:33.799Z,6.5
2023-02-12T07:31:33.735Z,6.5
2023-02-12T07:32:33.954Z,6.5
2023-02-12T07:33:33.248Z,6.5
2023-02-12T07:34:33.261Z,6.5
2023-02-12T07:35:33.214Z,6.6
2023-02-12T07:36:33.675Z,6.6
2023-02-12T07:37:33.593Z,6.6
2023-02-12T07:38:34.098Z,6.6
2023-02-12T07:39:34.114Z,6.6
2023-02-12T07:40:33.914Z,6.6
2023-02-12T07:41:34.733Z,6.6
2023-02-12T07:42:33.508Z,6.7
2023-02-12T07:43:34.049Z,6.7
2023-02-12T07:44:33.969Z,6.7
2023-02-12T07:45:33.835Z,6.7
2023-02-12T07:46:34.280Z,6.7
2023-02-12T07:47:33.849Z,6.7
2023-02-12T07:48:32.199Z,6.7
2023-02-12T07:49:34.192Z,6.8
2023-02-12T07:50:33.488Z,6.8
2023-02-12T07:51:33.577Z,6.8
2023-02-12T07:52:33.281Z,6.8
2023-02-12T07:53:33.517Z,6.8
2023-02-12T07:54:34.200Z,6.8
2023-02-12T07:55:33.408Z,6.8
2023-02-12T07:56:33.629Z,6.8
2023-02-12T07:57:33.805Z,6.8
2023-02-12T07:58:33.831Z,6.8
2023-02-12T07:59:34.285Z,6.9
2023-02-12T08:00:33.651Z,6.9
2023-02-12T08:01:34.183Z,6.8
2023-02-12T08:02:33.728Z,6.9
2023-02-12T08:03:34.154Z,6.8
2023-02-12T08:04:34.425Z,7
2023-02-12T08:05:33.657Z,7
2023-02-12T08:06:34.097Z,7
2023-02-12T08:07:33.578Z,7
2023-02-12T08:08:33.930Z,7
2023-02-12T08:09:33.486Z,7
2023-02-12T08:10:32.912Z,7
2023-02-12T08:11:34.246Z,7
2023-02-12T08:12:33.804Z,7.1
2023-02-12T08:13:33.332Z,7.1
2023-02-12T08:14:34.117Z,7
2023-02-12T08:15:33.684Z,7.1
2023-02-12T08:16:34.153Z,7.1
2023-02-12T08:17:33.909Z,7.1
2023-02-12T08:18:34.658Z,7.2
2023-02-12T08:19:33.860Z,7.2
2023-02-12T08:20:33.760Z,7.2
2023-02-12T08:21:33.956Z,7.2
2023-02-12T08:22:33.292Z,7.2
2023-02-12T08:23:33.770Z,7.3
2023-02-12T08:24:33.364Z,7.3
2023-02-12T08:25:33.271Z,7.3
2023-02-12T08:26:34.515Z,7.3
2023-02-12T08:27:33.809Z,7.3
2023-02-12T08:28:34.248Z,7.4
2023-02-12T08:29:34.022Z,7.3
2023-02-12T08:30:33.831Z,7.3
2023-02-12T08:31:34.054Z,7.3
2023-02-12T08:32:33.002Z,7.4
2023-02-12T08:33:33.540Z,7.4
2023-02-12T08:34:34.046Z,7.4
2023-02-12T08:35:34.046Z,7.4
2023-02-12T08:36:35.121Z,7.5
2023-02-12T08:37:33.872Z,7.5
2023-02-12T08:38:33.356Z,7.5
2023-02-12T08:39:33.567Z,7.5
2023-02-12T08:40:34.262Z,7.4
2023-02-12T08:41:33.693Z,7.4
2023-02-12T08:42:34.724Z,7.5
2023-02-12T08:43:34.570Z,7.4
2023-02-12T08:44:33.336Z,7.5
2023-02-12T08:45:33.316Z,7.5
2023-02-12T08:46:33.712Z,7.5
2023-02-12T08:47:33.632Z,7.5
2023-02-12T08:48:33.346Z,7.6
2023-02-12T08:49:33.631Z,7.5
2023-02-12T08:50:33.337Z,7.6
2023-02-12T08:51:33.330Z,7.6
2023-02-12T08:52:34.159Z,7.6
2023-02-12T08:53:33.208Z,7.6
2023-02-12T08:54:32.502Z,7.6
2023-02-12T08:55:32.006Z,7.7
2023-02-12T08:56:33.320Z,7.7
2023-02-12T08:57:33.625Z,7.8
2023-02-12T08:58:33.582Z,7.8
2023-02-12T08:59:33.688Z,7.8
2023-02-12T09:00:33.905Z,7.8
2023-02-12T09:01:33.826Z,7.8
2023-02-12T09:02:33.380Z,7.9
2023-02-12T09:03:34.018Z,7.9
2023-02-12T09:04:33.337Z,7.9
2023-02-12T09:05:33.749Z,7.9
2023-02-12T09:06:34.658Z,7.7
2023-02-12T09:07:33.326Z,7.7
2023-02-12T09:08:33.923Z,7.7
2023-02-12T09:09:33.983Z,7.7
2023-02-12T09:10:34.195Z,7.7
2023-02-12T09:11:34.073Z,7.8
2023-02-12T09:12:33.984Z,7.9
2023-02-12T09:13:33.808Z,7.9
2023-02-12T09:14:33.696Z,7.9
2023-02-12T09:15:33.690Z,7.9
2023-02-12T09:16:34.246Z,8
2023-02-12T09:17:32.969Z,8.1
2023-02-12T09:18:35.675Z,8.2
2023-02-12T09:19:33.578Z,8.1
2023-02-12T09:20:33.720Z,8.1
2023-02-12T09:21:34.716Z,8.1
2023-02-12T09:22:33.863Z,8.1
2023-02-12T09:23:33.245Z,8.2
2023-02-12T09:24:33.546Z,8.3
2023-02-12T09:25:33.969Z,8.3
2023-02-12T09:26:33.375Z,8.2
2023-02-12T09:27:34.072Z,8.2
2023-02-12T09:28:33.818Z,8.2
2023-02-12T09:29:35.127Z,8.2
2023-02-12T09:30:33.351Z,8.1
2023-02-12T09:31:33.866Z,8.1
2023-02-12T09:32:33.855Z,8.2
2023-02-12T09:33:33.717Z,8.2
2023-02-12T09:34:34.330Z,8.1
2023-02-12T09:35:33.406Z,8.1
2023-02-12T09:36:33.734Z,8.1
2023-02-12T09:37:34.445Z,8.1
2023-02-12T09:38:34.563Z,8.2
2023-02-12T09:39:34.756Z,8.3
2023-02-12T09:40:35.081Z,8.3
2023-02-12T09:41:32.978Z,8.4
2023-02-12T09:42:34.196Z,8.5
2023-02-12T09:43:33.214Z,8.4
2023-02-12T09:44:33.338Z,8.4
2023-02-12T09:45:34.100Z,8.5
2023-02-12T09:46:34.769Z,8.5
2023-02-12T09:47:33.898Z,8.4
2023-02-12T09:48:34.362Z,8.5
2023-02-12T09:49:34.134Z,8.5
2023-02-12T09:50:33.888Z,8.5
2023-02-12T09:51:33.625Z,8.6
2023-02-12T09:52:33.340Z,8.7
2023-02-12T09:53:34.049Z,8.6
2023-02-12T09:54:33.860Z,8.7
2023-02-12T09:55:34.016Z,8.7
2023-02-12T09:56:34.587Z,8.6
2023-02-12T09:57:34.023Z,8.5
2023-02-12T09:58:33.263Z,8.4
2023-02-12T09:59:33.215Z,8.4
2023-02-12T10:00:34.445Z,8.4
2023-02-12T10:01:33.335Z,8.5
2023-02-12T10:02:33.496Z,8.5
2023-02-12T10:03:32.196Z,8.4
2023-02-12T10:04:33.549Z,8.5
2023-02-12T10:05:33.856Z,8.5
2023-02-12T10:06:34.150Z,8.4
2023-02-12T10:07:33.285Z,8.4
2023-02-12T10:08:34.093Z,8.4
2023-02-12T10:09:33.338Z,8.5
2023-02-12T10:10:36.043Z,8.5
2023-02-12T10:11:33.858Z,8.5
2023-02-12T10:12:33.393Z,8.6
2023-02-12T10:13:33.806Z,8.7
2023-02-12T10:14:34.508Z,8.7
2023-02-12T10:15:33.730Z,8.8
2023-02-12T10:16:36.061Z,8.9
2023-02-12T10:17:34.205Z,9
2023-02-12T10:18:33.788Z,9.1
2023-02-12T10:19:33.618Z,9
2023-02-12T10:20:33.855Z,9
2023-02-12T10:21:34.003Z,9.1
2023-02-12T10:22:34.399Z,9.2
2023-02-12T10:23:34.376Z,9.2
2023-02-12T10:24:33.539Z,9.1
2023-02-12T10:25:33.405Z,9
2023-02-12T10:26:34.012Z,9
2023-02-12T10:27:34.142Z,9.1
2023-02-12T10:28:33.274Z,9.1
2023-02-12T10:29:33.828Z,9.1
2023-02-12T10:30:33.742Z,9.3
2023-02-12T10:31:34.200Z,9.3
2023-02-12T10:32:33.384Z,9.2
2023-02-12T10:33:35.539Z,9.3
2023-02-12T10:34:34.549Z,9.5
2023-02-12T10:35:33.954Z,9.5
2023-02-12T10:36:34.421Z,9.5
2023-02-12T10:37:33.373Z,9.5
2023-02-12T10:38:33.215Z,9.6
2023-02-12T10:39:33.271Z,9.8
2023-02-12T10:40:33.580Z,9.9
2023-02-12T10:41:33.564Z,9.9
2023-02-12T10:42:34.781Z,9.8
2023-02-12T10:43:34.026Z,9.8
2023-02-12T10:44:34.833Z,9.8
2023-02-12T10:45:33.238Z,9.8
2023-02-12T10:46:32.533Z,10
2023-02-12T10:47:33.279Z,10
2023-02-12T10:48:34.552Z,9.9
2023-02-12T10:49:33.545Z,9.9
2023-02-12T10:50:34.361Z,10
2023-02-12T10:51:33.854Z,9.9
2023-02-12T10:52:33.418Z,10
2023-02-12T10:53:33.722Z,10.1
2023-02-12T10:54:33.752Z,10.2
2023-02-12T10:55:33.758Z,10.1
2023-02-12T10:56:33.589Z,10
2023-02-12T10:57:34.400Z,10.1
2023-02-12T10:58:34.003Z,10
2023-02-12T10:59:35.070Z,10.1
2023-02-12T11:00:33.859Z,10.2
2023-02-12T11:01:33.963Z,10.2
2023-02-12T11:02:33.942Z,10.3
2023-02-12T11:03:34.548Z,10.4
2023-02-12T11:04:33.863Z,10.5
2023-02-12T11:05:35.639Z,10.5
2023-02-12T11:06:34.324Z,10.5
2023-02-12T11:07:33.234Z,10.4
2023-02-12T11:08:32.090Z,10
2023-02-12T11:09:34.084Z,10
2023-02-12T11:10:32.623Z,10
2023-02-12T11:11:33.408Z,10
2023-02-12T11:12:34.602Z,10.1
2023-02-12T11:13:34.723Z,10.2
2023-02-12T11:14:33.469Z,10.2
2023-02-12T11:15:33.501Z,10.1
2023-02-12T11:16:33.376Z,10
2023-02-12T11:17:34.879Z,9.9
2023-02-12T11:18:33.752Z,10
2023-02-12T11:19:33.836Z,10
2023-02-12T11:20:34.469Z,10
2023-02-12T11:21:33.760Z,10.1
2023-02-12T11:22:34.064Z,10
2023-02-12T11:23:33.369Z,10
2023-02-12T11:24:33.370Z,10
2023-02-12T11:25:33.451Z,10.2
2023-02-12T11:26:33.984Z,10.3
2023-02-12T11:27:33.889Z,10.4
2023-02-12T11:28:34.230Z,10.5
2023-02-12T11:29:33.436Z,10.5
2023-02-12T11:30:33.613Z,10.5
2023-02-12T11:31:34.231Z,10.7
2023-02-12T11:32:34.752Z,10.7
2023-02-12T11:33:33.509Z,10.7
2023-02-12T11:34:33.549Z,10.5
2023-02-12T11:35:33.488Z,10.5
2023-02-12T11:36:33.945Z,10.7
2023-02-12T11:37:33.267Z,10.7
2023-02-12T11:38:33.741Z,10.9
2023-02-12T11:39:33.916Z,11
2023-02-12T11:40:34.154Z,11
2023-02-12T11:41:33.233Z,10.8
2023-02-12T11:42:33.797Z,10.8
2023-02-12T11:43:33.221Z,10.5
2023-02-12T11:44:34.218Z,10.4
2023-02-12T11:45:34.088Z,10.5
2023-02-12T11:46:33.916Z,10.6
2023-02-12T11:47:33.218Z,10.6
2023-02-12T11:48:34.157Z,10.6
2023-02-12T11:49:34.038Z,10.6
2023-02-12T11:50:33.795Z,10.6
2023-02-12T11:51:34.366Z,10.7
2023-02-12T11:52:33.327Z,10.8
2023-02-12T11:53:32.665Z,10.7
2023-02-12T11:54:33.764Z,10.7
2023-02-12T11:55:33.948Z,10.8
2023-02-12T11:56:33.255Z,10.9
2023-02-12T11:57:34.728Z,11.1
2023-02-12T11:58:33.295Z,11.2
2023-02-12T11:59:33.953Z,11.2
2023-02-12T12:00:34.977Z,11
2023-02-12T12:01:33.949Z,11.2
2023-02-12T12:02:33.969Z,11.5
2023-02-12T12:03:33.899Z,11.3
2023-02-12T12:04:33.523Z,11.4
2023-02-12T12:05:34.532Z,11.3
2023-02-12T12:06:34.900Z,11.3
2023-02-12T12:07:33.276Z,11.1
2023-02-12T12:08:33.598Z,11
2023-02-12T12:09:33.558Z,11.1
2023-02-12T12:10:34.432Z,11.3
2023-02-12T12:11:33.910Z,11.2
2023-02-12T12:12:33.483Z,11.3
2023-02-12T12:13:33.578Z,11.3
2023-02-12T12:14:34.127Z,11.3
2023-02-12T12:15:33.205Z,11.3
2023-02-12T12:16:34.070Z,11.3
2023-02-12T12:17:32.117Z,11.3
2023-02-12T12:18:33.232Z,11.6
2023-02-12T12:19:33.403Z,11.8
2023-02-12T12:20:34.665Z,11.8
2023-02-12T12:21:34.176Z,11.9
2023-02-12T12:22:33.955Z,11.9
2023-02-12T12:23:33.575Z,11.7
2023-02-12T12:24:33.561Z,11.8
2023-02-12T12:25:34.209Z,11.7
2023-02-12T12:26:33.617Z,11.6
2023-02-12T12:27:34.140Z,11.5
2023-02-12T12:28:34.732Z,11.6
2023-02-12T12:29:34.464Z,11.5
2023-02-12T12:30:34.061Z,11.4
2023-02-12T12:31:33.691Z,11.3
2023-02-12T12:32:33.254Z,11.4
2023-02-12T12:33:33.544Z,11.6
2023-02-12T12:34:33.262Z,11.6
2023-02-12T12:35:34.274Z,11.7
2023-02-12T12:36:33.975Z,11.6
2023-02-12T12:37:33.691Z,11.6
2023-02-12T12:38:33.910Z,11.8
2023-02-12T12:39:33.297Z,11.7
2023-02-12T12:40:33.394Z,11.7
2023-02-12T12:41:33.233Z,11.8
2023-02-12T12:42:33.564Z,11.7
2023-02-12T12:43:34.071Z,11.5
2023-02-12T12:44:33.317Z,11.5
2023-02-12T12:45:33.360Z,11.5
2023-02-12T12:46:33.282Z,11.5
2023-02-12T12:47:33.769Z,11.5
2023-02-12T12:48:33.368Z,11.6
2023-02-12T12:49:33.886Z,11.8
2023-02-12T12:50:34.553Z,11.8
2023-02-12T12:51:33.522Z,11.8
2023-02-12T12:52:33.394Z,11.6
2023-02-12T12:53:33.273Z,11.5
2023-02-12T12:54:35.043Z,11.5
2023-02-12T12:55:34.752Z,11.7
2023-02-12T12:56:33.859Z,11.7
2023-02-12T12:57:33.508Z,11.6
2023-02-12T12:58:33.712Z,11.6
2023-02-12T12:59:34.440Z,11.4
2023-02-12T13:00:32.513Z,11.4
2023-02-12T13:01:34.316Z,11.5
2023-02-12T13:02:34.025Z,11.5
2023-02-12T13:03:34.558Z,11.6
2023-02-12T13:04:33.349Z,11.6
2023-02-12T13:05:34.074Z,11.5
2023-02-12T13:06:33.488Z,11.4
2023-02-12T13:07:33.252Z,11.5
2023-02-12T13:08:33.349Z,11.4
2023-02-12T13:09:33.536Z,11.4
2023-02-12T13:10:33.235Z,11.6
2023-02-12T13:11:33.605Z,11.5
2023-02-12T13:12:34.203Z,11.6
2023-02-12T13:13:33.256Z,11.6
2023-02-12T13:14:33.615Z,11.4
2023-02-12T13:15:34.565Z,11.4
2023-02-12T13:16:33.835Z,11.5
2023-02-12T13:17:33.216Z,11.4
2023-02-12T13:18:33.519Z,11.3
2023-02-12T13:19:33.782Z,11.4
2023-02-12T13:20:34.579Z,11.3
2023-02-12T13:21:33.786Z,11
2023-02-12T13:22:33.387Z,10.9
2023-02-12T13:23:33.079Z,11.1
2023-02-12T13:24:32.251Z,11.4
2023-02-12T13:25:33.597Z,11.5
2023-02-12T13:26:33.621Z,11.5
2023-02-12T13:27:34.498Z,11.5
2023-02-12T13:28:34.112Z,11.3
2023-02-12T13:29:33.522Z,11.3
2023-02-12T13:30:33.336Z,11.2
2023-02-12T13:31:34.461Z,11.3
2023-02-12T13:32:34.556Z,11.4
2023-02-12T13:33:34.118Z,11.4
2023-02-12T13:34:33.508Z,11.4
2023-02-12T13:35:33.687Z,11.4
2023-02-12T13:36:33.248Z,11.4
2023-02-12T13:37:34.457Z,11.4
2023-02-12T13:38:33.485Z,11.3
2023-02-12T13:39:34.262Z,11.3
2023-02-12T13:40:33.540Z,11.3
2023-02-12T13:41:33.873Z,11.2
2023-02-12T13:42:33.870Z,11.1
2023-02-12T13:43:33.245Z,11.1
2023-02-12T13:44:34.202Z,11.1
2023-02-12T13:45:33.565Z,11.2
2023-02-12T13:46:33.316Z,11.1